Flight Track Log - Related Links

Times and Time Zones

All times are in EDT time to prevent confusion due to time zone crossing. See the SWA1775 flight status page for this flight to view local times or setup timezone preferences in your user account.

Time Position Orientation Groundspeed Altitude Reporting Facility
EDT Latitude Longitude Course Direction KTS MPH feet Rate Location/Type
Sun 02:55:07 PM 36.0861 -86.7767 244° Southwest 205 236 3,800  Level Memphis Center
Sun 02:56:07 PM 36.0967 -86.8558 279° West 241 277 6,100 2,900 Climbing Memphis Center
Sun 02:57:07 PM 36.1261 -86.9469 292° West 272 313 9,600 2,600 Climbing Memphis Center
Sun 02:58:07 PM 36.1622 -87.0483 294° West 308 354 11,300 2,250 Climbing Memphis Center
Sun 02:59:07 PM 36.2053 -87.1803 292° West 357 411 14,100 2,750 Climbing Memphis Center
Sun 03:00:07 PM 36.2439 -87.3050 291° West 387 445 16,800 2,450 Climbing Memphis Center
Sun 03:01:07 PM 36.2475 -87.4464 272° West 401 461 19,000 2,250 Climbing Memphis Center
Sun 03:02:07 PM 36.2528 -87.5853 273° West 406 467 21,300 2,000 Climbing Memphis Center
Sun 03:03:07 PM 36.2536 -87.7292 270° West 418 481 23,000 1,700 Climbing Memphis Center
Sun 03:04:07 PM 36.2589 -87.8836 272° West 436 502 24,700 1,650 Climbing Memphis Center
Sun 03:05:07 PM 36.2619 -88.0378 271° West 442 509 26,300 1,850 Climbing Memphis Center
Sun 03:06:07 PM 36.2689 -88.1922 273° West 448 516 28,400 4,850 Climbing Memphis Center
Sun 03:07:07 PM 36.2714 -88.3439 271° West 448 516 36,000 1,750 Climbing Memphis Center
Sun 03:08:07 PM 36.2739 -88.4931 271° West 442 509 31,900 -1,400 Descending Memphis Center
Sun 03:09:07 PM 36.2761 -88.6450 271° West 437 503 33,200 1,350 Climbing Memphis Center
Sun 03:10:07 PM 36.2781 -88.7969 271° West 437 503 34,600 1,350 Climbing Memphis Center
Sun 03:11:07 PM 36.2797 -88.9486 271° West 437 503 35,900 700 Climbing Memphis Center
Sun 03:12:07 PM 36.2939 -89.0953 277° West 437 503 36,000 50 Climbing Memphis Center
Sun 03:13:07 PM 36.3431 -89.2283 295° West 427 491 36,000  Level Memphis Center
Sun 03:14:07 PM 36.3983 -89.3539 299° West 448 516 36,000  Level Memphis Center
Sun 03:15:07 PM 36.4536 -89.5031 295° West 448 516 36,000  Level Memphis Center
Sun 03:16:07 PM 36.5067 -89.6342 297° West 448 516 36,000  Level Memphis Center
Sun 03:17:07 PM 36.5594 -89.7653 297° West 436 502 36,000  Level Memphis Center
Sun 03:18:07 PM 36.5808 -89.9100 280° West 431 496 36,000  Level Memphis Center
Sun 03:19:07 PM 36.5731 -90.0597 266° West 425 489 36,000  Level Memphis Center
Sun 03:20:07 PM 36.5672 -90.2097 267° West 430 495 36,000  Level Memphis Center
Sun 03:21:07 PM 36.5589 -90.3622 266° West 440 506 36,000  Level Memphis Center
Sun 03:22:07 PM 36.5547 -90.5172 268° West 445 512 36,000  Level Memphis Center
Sun 03:23:07 PM 36.5458 -90.6747 266° West 450 518 36,000  Level Memphis Center
Sun 03:24:07 PM 36.5372 -90.8269 266° West 450 518 36,000  Level Memphis Center
Sun 03:25:07 PM 36.5303 -90.9819 267° West 455 524 36,000  Level Memphis Center
Sun 03:26:07 PM 36.5231 -91.1444 267° West 450 518 36,000  Level Memphis Center
Sun 03:27:07 PM 36.5158 -91.2786 266° West 440 506 36,000  Level Memphis Center
Sun 03:28:07 PM 36.5064 -91.4336 266° West 440 506 36,000 650 Level Memphis Center
Sun 03:29:07 PM 36.4986 -91.5806 266° West 440 506 37,300 1,000 Climbing Memphis Center
Sun 03:30:07 PM 36.4908 -91.7275 266° West 440 506 38,000 350 Climbing Memphis Center
Sun 03:31:07 PM 36.4850 -91.8744 267° West 434 499 38,000  Level Memphis Center
Sun 03:32:07 PM 36.4747 -92.0242 265° West 434 499 38,000  Level Memphis Center
Sun 03:33:07 PM 36.4667 -92.1683 266° West 434 499 38,000  Level Memphis Center
Sun 03:34:07 PM 36.4581 -92.3153 266° West 434 499 38,000  Level Memphis Center
Sun 03:35:07 PM 36.4494 -92.4622 266° West 434 499 38,000  Level Memphis Center
Sun 03:36:07 PM 36.4406 -92.6089 266° West 434 499 38,000  Level Memphis Center
Sun 03:37:07 PM 36.4317 -92.7558 266° West 429 494 38,000  Level Memphis Center
Sun 03:38:07 PM 36.4203 -92.9050 265° West 434 499 38,000  Level Memphis Center
Sun 03:39:07 PM 36.4111 -93.0517 266° West 434 499 38,000  Level Memphis Center
Sun 03:40:07 PM 36.4014 -93.1983 265° West 434 499 38,000  Level Memphis Center
Sun 03:41:07 PM 36.3917 -93.3475 265° West 434 499 38,000  Level Memphis Center
Sun 03:42:07 PM 36.3797 -93.4939 264° West 439 505 38,000  Level Memphis Center
Sun 03:43:07 PM 36.3697 -93.6481 265° West 444 511 38,000  Level Memphis Center
Sun 03:44:07 PM 36.3592 -93.8050 265° West 435 501 38,000  Level Memphis Center
Sun 03:45:07 PM 36.3464 -93.9564 264° West 435 501 38,000  Level Memphis Center
Sun 03:46:07 PM 36.3381 -94.1028 266° West 435 501 38,000  Level Memphis Center
Sun 03:47:07 PM 36.3250 -94.2544 264° West 440 506 38,000  Level Memphis Center
Sun 03:48:03 PM 36.3158 -94.3944 265° West 436 502 38,000  Level Kansas City Center
Sun 03:49:05 PM 36.3039 -94.5450 264° West 437 503 38,000  Level Kansas City Center
Sun 03:50:07 PM 36.2911 -94.6947 264° West 437 503 38,000  Level Kansas City Center
Sun 03:51:09 PM 36.2769 -94.8458 263° West 437 503 38,000  Level Kansas City Center
Sun 03:52:11 PM 36.2647 -94.9964 264° West 439 505 38,000  Level Kansas City Center
Sun 03:53:13 PM 36.2497 -95.1656 264° West 435 501 38,000  Level Kansas City Center
Sun 03:54:15 PM 36.2358 -95.3150 263° West 436 502 38,000  Level Kansas City Center
Sun 03:55:17 PM 36.2331 -95.4681 269° West 443 510 38,000  Level Kansas City Center
Sun 03:56:19 PM 36.2322 -95.6186 270° West 441 507 38,000  Level Kansas City Center
Sun 03:57:22 PM 36.2286 -95.7931 269° West 441 507 38,000  Level Kansas City Center
Sun 03:58:23 PM 36.2258 -95.9469 269° West 444 511 38,000  Level Kansas City Center
Sun 03:59:26 PM 36.2225 -96.1014 269° West 447 514 38,000  Level Kansas City Center
Sun 04:00:28 PM 36.2189 -96.2553 268° West 446 513 38,000  Level Kansas City Center
Sun 04:01:30 PM 36.2158 -96.4089 269° West 447 514 38,000  Level Kansas City Center
Sun 04:02:33 PM 36.2114 -96.5614 268° West 445 512 38,000  Level Kansas City Center
Sun 04:03:35 PM 36.2067 -96.7119 268° West 441 507 38,000  Level Kansas City Center
Sun 04:04:37 PM 36.2022 -96.8925 268° West 439 505 38,000  Level Kansas City Center
Sun 04:05:39 PM 36.1969 -97.0394 267° West 435 501 38,000  Level Kansas City Center
Sun 04:06:41 PM 36.1928 -97.1897 268° West 436 502 38,000  Level Kansas City Center
Sun 04:07:43 PM 36.1875 -97.3392 268° West 437 503 38,000  Level Kansas City Center
Sun 04:08:45 PM 36.1828 -97.4881 268° West 436 502 38,000  Level Kansas City Center
Sun 04:09:47 PM 36.1756 -97.6667 267° West 435 501 38,000  Level Kansas City Center
Sun 04:10:49 PM 36.1708 -97.8131 268° West 432 497 38,000  Level Kansas City Center
Sun 04:11:51 PM 36.1656 -97.9600 267° West 430 495 38,000  Level Kansas City Center
Sun 04:12:53 PM 36.1583 -98.1169 267° West 430 495 38,000  Level Kansas City Center
Sun 04:13:55 PM 36.1528 -98.2633 267° West 429 494 38,000  Level Kansas City Center
Sun 04:14:57 PM 36.1456 -98.4094 267° West 426 490 38,000  Level Kansas City Center
Sun 04:15:59 PM 36.1397 -98.5556 267° West 426 490 38,000  Level Kansas City Center
Sun 04:17:01 PM 36.1331 -98.7192 267° West 427 491 38,000  Level Kansas City Center
Sun 04:18:03 PM 36.1256 -98.8639 266° West 424 488 38,000  Level Kansas City Center
Sun 04:19:05 PM 36.1186 -99.0083 267° West 424 488 38,000  Level Kansas City Center
Sun 04:20:07 PM 36.1153 -99.1564 268° West 428 493 38,000  Level Kansas City Center
Sun 04:21:09 PM 36.1050 -99.3342 266° West 431 496 38,000  Level Kansas City Center
Sun 04:22:11 PM 36.0944 -99.4875 265° West 433 498 38,000  Level Kansas City Center
Sun 04:23:13 PM 36.0869 -99.6353 266° West 431 496 38,000  Level Kansas City Center
Sun 04:24:15 PM 36.0775 -99.7817 265° West 429 494 38,000  Level Kansas City Center
Sun 04:25:17 PM 36.0703 -99.9294 267° West 430 495 38,000  Level Kansas City Center
Sun 04:26:19 PM 36.0614 -100.0761 266° West 428 493 38,000  Level Kansas City Center
Sun 04:27:21 PM 36.0528 -100.2219 266° West 426 490 38,000  Level Kansas City Center
Sun 04:28:23 PM 36.0408 -100.3961 265° West 424 488 38,000  Level Kansas City Center
Sun 04:29:19 PM 36.0372 -100.5133 268° West 425 489 38,000  Level Albuquerque Center
Sun 04:30:21 PM 36.0286 -100.6581 266° West 424 488 38,000  Level Albuquerque Center
Sun 04:31:23 PM 36.0178 -100.8022 265° West 422 486 38,000  Level Albuquerque Center
Sun 04:32:25 PM 36.0081 -100.9772 266° West 422 486 38,000  Level Albuquerque Center
Sun 04:33:27 PM 35.9986 -101.1231 265° West 425 489 38,000  Level Albuquerque Center
Sun 04:34:28 PM 35.9894 -101.2678 266° West 426 490 38,000  Level Albuquerque Center
Sun 04:35:30 PM 35.9792 -101.4100 265° West 423 487 38,000  Level Albuquerque Center
Sun 04:36:32 PM 35.9694 -101.5544 265° West 424 488 38,000  Level Albuquerque Center
Sun 04:37:34 PM 35.9594 -101.6986 265° West 425 489 38,000  Level Albuquerque Center
Sun 04:38:36 PM 35.9467 -101.8708 265° West 425 489 38,000  Level Albuquerque Center
Sun 04:39:38 PM 35.9358 -102.0153 265° West 426 490 38,000  Level Albuquerque Center
Sun 04:40:40 PM 35.9253 -102.1581 265° West 423 487 38,000  Level Albuquerque Center
Sun 04:41:42 PM 35.9144 -102.3028 265° West 425 489 38,000  Level Albuquerque Center
Sun 04:42:44 PM 35.9031 -102.4461 264° West 423 487 38,000  Level Albuquerque Center
Sun 04:43:46 PM 35.8897 -102.6200 265° West 426 490 38,000  Level Albuquerque Center
Sun 04:44:47 PM 35.8783 -102.7661 265° West 430 495 38,000  Level Albuquerque Center
Sun 04:45:49 PM 35.8678 -102.9114 265° West 428 493 38,000  Level Albuquerque Center
Sun 04:46:51 PM 35.8556 -103.0550 264° West 426 490 38,000  Level Albuquerque Center
Sun 04:47:53 PM 35.8425 -103.2008 264° West 425 489 38,000  Level Albuquerque Center
Sun 04:48:55 PM 35.8306 -103.3453 264° West 423 487 38,000  Level Albuquerque Center
Sun 04:49:57 PM 35.8164 -103.5153 264° West 424 488 38,000  Level Albuquerque Center
Sun 04:50:59 PM 35.8042 -103.6606 264° West 424 488 38,000  Level Albuquerque Center
Sun 04:52:01 PM 35.7917 -103.8053 264° West 424 488 38,000  Level Albuquerque Center
Sun 04:53:03 PM 35.7792 -103.9486 264° West 422 486 38,000  Level Albuquerque Center
Sun 04:54:05 PM 35.7661 -104.0917 264° West 420 483 38,000  Level Albuquerque Center
Sun 04:55:07 PM 35.7522 -104.2333 263° West 417 480 38,000  Level Albuquerque Center
Sun 04:56:09 PM 35.7375 -104.3981 264° West 415 478 38,000  Level Albuquerque Center
Sun 04:57:11 PM 35.7239 -104.5383 263° West 413 475 38,000  Level Albuquerque Center
Sun 04:58:13 PM 35.7100 -104.6794 263° West 414 476 38,000  Level Albuquerque Center
Sun 04:59:14 PM 35.6972 -104.8194 264° West 411 473 38,000  Level Albuquerque Center
Sun 05:00:16 PM 35.6825 -104.9589 263° West 409 471 38,000  Level Albuquerque Center
Sun 05:01:18 PM 35.6678 -105.0972 263° West 406 467 38,000  Level Albuquerque Center
Sun 05:02:20 PM 35.6558 -105.2325 264° West 400 460 38,000  Level Albuquerque Center
Sun 05:03:22 PM 35.6400 -105.3886 263° West 394 453 38,000  Level Albuquerque Center
Sun 05:04:24 PM 35.6258 -105.5228 263° West 393 452 38,000  Level Albuquerque Center
Sun 05:05:26 PM 35.6133 -105.6578 264° West 395 455 38,000  Level Albuquerque Center
Sun 05:06:28 PM 35.5994 -105.7906 263° West 391 450 38,000  Level Albuquerque Center
Sun 05:07:30 PM 35.5853 -105.9172 262° West 391 450 38,000  Level Albuquerque Center
Sun 05:08:32 PM 35.5717 -106.0497 263° West 393 452 38,000  Level Albuquerque Center
Sun 05:09:34 PM 35.5544 -106.2103 263° West 397 457 38,000  Level Albuquerque Center
Sun 05:10:36 PM 35.5403 -106.3450 263° West 399 459 38,000  Level Albuquerque Center
Sun 05:11:38 PM 35.5267 -106.4764 263° West 393 452 38,000  Level Albuquerque Center
Sun 05:12:40 PM 35.5106 -106.6086 262° West 393 452 38,000  Level Albuquerque Center
Sun 05:13:42 PM 35.4961 -106.7408 262° West 394 453 38,000  Level Albuquerque Center
Sun 05:14:44 PM 35.4814 -106.8706 262° West 390 449 38,000  Level Albuquerque Center
Sun 05:15:46 PM 35.4636 -107.0289 262° West 394 453 38,000  Level Albuquerque Center
Sun 05:16:47 PM 35.4464 -107.1628 261° West 398 458 38,000  Level Albuquerque Center
Sun 05:17:49 PM 35.4308 -107.3017 262° West 402 463 38,000  Level Albuquerque Center
Sun 05:18:51 PM 35.4125 -107.4525 262° West 401 461 38,000  Level Albuquerque Center
Sun 05:19:53 PM 35.3964 -107.5811 261° West 400 460 38,000  Level Albuquerque Center
Sun 05:20:55 PM 35.3808 -107.7094 262° West 397 457 38,000  Level Albuquerque Center
Sun 05:21:57 PM 35.3622 -107.8561 261° West 393 452 38,000  Level Albuquerque Center
Sun 05:22:59 PM 35.3475 -107.9808 262° West 389 448 38,000  Level Albuquerque Center
Sun 05:24:01 PM 35.3297 -108.1253 261° West 384 442 38,000  Level Albuquerque Center
Sun 05:25:03 PM 35.3139 -108.2481 261° West 382 440 38,000  Level Albuquerque Center
Sun 05:26:05 PM 35.2961 -108.3919 261° West 382 440 38,000  Level Albuquerque Center
Sun 05:27:07 PM 35.2794 -108.5175 261° West 385 443 38,000  Level Albuquerque Center
Sun 05:28:09 PM 35.2608 -108.6650 261° West 390 449 38,000  Level Albuquerque Center
Sun 05:29:11 PM 35.2442 -108.7906 261° West 390 449 38,000  Level Albuquerque Center
Sun 05:30:13 PM 35.2281 -108.9147 261° West 387 445 38,000  Level Albuquerque Center
Sun 05:31:14 PM 35.2089 -109.0628 261° West 390 449 38,000  Level Albuquerque Center
Sun 05:32:16 PM 35.1908 -109.1861 260° West 387 445 38,000  Level Albuquerque Center
Sun 05:33:18 PM 35.1719 -109.3319 261° West 388 447 38,000  Level Albuquerque Center
Sun 05:34:20 PM 35.1547 -109.4550 260° West 384 442 38,000  Level Albuquerque Center
Sun 05:35:22 PM 35.1350 -109.5958 260° West 378 435 38,000  Level Albuquerque Center
Sun 05:36:24 PM 35.1178 -109.7183 260° West 379 436 38,000  Level Albuquerque Center
Sun 05:37:26 PM 35.1011 -109.8394 260° West 379 436 38,000  Level Albuquerque Center
Sun 05:38:28 PM 35.0806 -109.9828 260° West 381 438 38,000  Level Albuquerque Center
Sun 05:39:29 PM 35.0631 -110.1053 260° West 378 435 38,000  Level Albuquerque Center
Sun 05:40:31 PM 35.0419 -110.2478 260° West 380 437 38,000  Level Albuquerque Center
Sun 05:41:33 PM 35.0239 -110.3672 260° West 377 434 38,000  Level Albuquerque Center
Sun 05:42:35 PM 35.0017 -110.5117 259° West 383 441 38,000  Level Albuquerque Center
Sun 05:43:37 PM 34.9831 -110.6342 260° West 385 443 38,000  Level Albuquerque Center
Sun 05:44:39 PM 34.9653 -110.7556 260° West 384 442 38,000  Level Albuquerque Center
Sun 05:45:40 PM 34.9450 -110.8861 259° West 390 449 38,000  Level Albuquerque Center
Sun 05:46:42 PM 34.9228 -111.0414 260° West 390 449 38,000  Level Albuquerque Center
Sun 05:47:44 PM 34.9044 -111.1750 261° West 397 457 38,000  Level Albuquerque Center
Sun 05:48:46 PM 34.8847 -111.3022 259° West 388 447 38,000  Level Albuquerque Center
Sun 05:49:47 PM 34.8658 -111.4292 260° West 384 442 38,000  Level Albuquerque Center
Sun 05:50:49 PM 34.8456 -111.5556 259° West 384 442 38,000  Level Albuquerque Center
Sun 05:51:51 PM 34.8258 -111.6831 259° West 385 443 38,000  Level Albuquerque Center
Sun 05:52:53 PM 34.8044 -111.8211 259° West 388 447 38,000  Level Albuquerque Center
Sun 05:53:54 PM 34.7839 -111.9500 259° West 388 447 38,000  Level Albuquerque Center
Sun 05:54:56 PM 34.7628 -112.0783 259° West 389 448 38,000  Level Albuquerque Center
Sun 05:55:58 PM 34.7400 -112.2219 259° West 388 447 38,000  Level Albuquerque Center
Sun 05:57:00 PM 34.7194 -112.3467 259° West 383 441 38,000  Level Albuquerque Center
Sun 05:58:01 PM 34.6981 -112.4839 259° West 383 441 38,000  Level Albuquerque Center
Sun 05:59:03 PM 34.6769 -112.6111 259° West 384 442 38,000  Level Albuquerque Center
Sun 06:00:05 PM 34.6556 -112.7383 258° West 385 443 38,000  Level Albuquerque Center
Sun 06:01:06 PM 34.6336 -112.8683 258° West 390 449 38,000  Level Albuquerque Center
Sun 06:02:08 PM 34.6122 -112.9975 259° West 392 451 38,000  Level Albuquerque Center
Sun 06:03:10 PM 34.5858 -113.1553 259° West 396 456 38,000  Level Albuquerque Center
Sun 06:04:11 PM 34.5633 -113.2844 258° West 394 453 38,000  Level Albuquerque Center
Sun 06:05:13 PM 34.5411 -113.4117 258° West 390 449 38,000  Level Albuquerque Center
Sun 06:06:14 PM 34.5194 -113.5411 259° West 391 450 38,000  Level Albuquerque Center
Sun 06:07:16 PM 34.4975 -113.6689 258° West 391 450 38,000  Level Albuquerque Center
Sun 06:08:18 PM 34.4753 -113.7956 258° West 389 448 38,000  Level Albuquerque Center
Sun 06:09:19 PM 34.4494 -113.9497 259° West 388 447 38,000  Level Albuquerque Center
Sun 06:10:21 PM 34.4261 -114.0794 258° West 390 449 38,000  Level Albuquerque Center
Sun 06:11:22 PM 34.4025 -114.2094 258° West 391 450 38,000  Level Albuquerque Center
Sun 06:12:24 PM 34.3794 -114.3386 258° West 392 451 38,000  Level Albuquerque Center
Sun 06:13:26 PM 34.3733 -114.4700 267° West 392 451 38,000  Level Albuquerque Center
Sun 06:14:27 PM 34.3808 -114.6075 274° West 401 461 38,000  Level Albuquerque Center
Sun 06:15:46 PM 34.3944 -114.7978 275° West 394 453 38,000  Level Los Angeles Center
Sun 06:16:48 PM 34.4006 -114.9319 273° West 399 459 38,000  Level Los Angeles Center
Sun 06:17:50 PM 34.3753 -115.0606 257° West 390 449 38,000 -48 Level Los Angeles Center
Sun 06:18:52 PM 34.3503 -115.1906 257° West 394 453 37,900 -528 Descending Los Angeles Center
Sun 06:19:55 PM 34.3239 -115.3206 256° West 399 459 36,900 -912 Descending Los Angeles Center
Sun 06:20:57 PM 34.2989 -115.4522 257° West 401 461 36,000 -1,065 Descending Los Angeles Center
Sun 06:21:59 PM 34.2669 -115.6083 256° West 402 463 34,700 -1,113 Descending Los Angeles Center
Sun 06:23:01 PM 34.2411 -115.7378 256° West 399 459 33,700 -968 Descending Los Angeles Center
Sun 06:24:03 PM 34.2147 -115.8669 256° West 399 459 32,700 -1,016 Descending Los Angeles Center
Sun 06:25:05 PM 34.1844 -116.0006 255° West 390 449 31,600 -1,016 Descending Los Angeles Center
Sun 06:26:07 PM 34.1153 -116.0839 225° Southwest 385 443 30,600 -1,113 Descending Los Angeles Center
Sun 06:27:09 PM 34.0167 -116.1814 219° Southwest 381 438 29,300 -1,113 Descending Los Angeles Center
Sun 06:28:11 PM 33.9869 -116.2878 251° West 354 407 28,300 -960 Descending Los Angeles Center
Sun 06:29:14 PM 33.9825 -116.4056 267° West 352 405 27,300 -1,056 Descending Los Angeles Center
Sun 06:30:16 PM 33.9786 -116.5206 268° West 348 400 26,100 -1,403 Descending Los Angeles Center
Sun 06:31:18 PM 33.9731 -116.6328 267° West 340 391 24,400 -1,645 Descending Los Angeles Center
Sun 06:32:20 PM 33.9694 -116.7425 268° West 331 381 22,700 -2,081 Descending Los Angeles Center
Sun 06:33:22 PM 33.9642 -116.8700 267° West 322 371 20,100 -2,758 Descending Los Angeles Center
Sun 06:34:24 PM 33.9594 -116.9906 267° West 354 407 17,000 -1,548 Descending Los Angeles Center
Sun 06:35:26 PM 33.9544 -117.1164 267° West 371 427 16,900 -48 Descending Los Angeles Center
Sun 06:36:28 PM 33.9422 -117.2528 264° West 376 433 16,900 -1,065 Level Los Angeles Center
Sun 06:37:30 PM 33.9333 -117.3717 265° West 364 419 14,700 -1,536 Descending Los Angeles Center
Sun 06:38:33 PM 33.9694 -117.4758 293° West 338 389 13,700 -1,163 Descending Los Angeles Center
Sun 06:39:39 PM 34.0000 -117.5833 289° West 306 352 12,200 -1,500 Descending Southern California TRACON
Sun 06:40:45 PM 34.0000 -117.6833 270° West 277 319 10,400 -1,500 Descending Southern California TRACON
Sun 06:41:39 PM 34.0000 -117.7833 270° West 270 311 9,200 -1,474 Descending Southern California TRACON
Sun 06:42:39 PM 33.9833 -117.8667 256° West 273 314 7,600 -1,500 Descending Southern California TRACON
Sun 06:43:39 PM 33.9833 -117.9667 270° West 272 313 6,200 -1,200 Descending Southern California TRACON
Sun 06:44:39 PM 33.9667 -118.0500 256° West 258 297 5,200 -893 Descending Southern California TRACON
Sun 06:45:40 PM 33.9667 -118.1167 270° West 221 254 4,400 -1,041 Descending Southern California TRACON
Sun 06:46:40 PM 33.9500 -118.2000 256° West 216 249 3,100 -1,200 Descending Southern California TRACON
Sun 06:47:40 PM 33.9500 -118.2667 270° West 205 236 2,000 -1,000 Descending Southern California TRACON
Sun 06:48:46 PM 33.9500 -118.3167 270° West 157 181 1,000 -800 Descending Southern California TRACON
Sun 06:49:40 PM 33.9333 -118.3667 248° West 131 151 400 -364 Descending Southern California TRACON
Sun 06:50:58 PM 33.9358 -118.4133 274° West 148 170 200 -154 Descending Los Angeles Center
Sun 06:52:00 PM 33.9333 -118.4000 North  Level FlightAware Approximate
Sun 06:59:00 PM 33.9425 -118.4081 North  Level Estimated

Login

Don't have an account? Register now (free) for customized features, flight alerts, and more!